Time;durP1;ratioP1;P1;durP2;ratioP2;P2;SDS_P1;SDS_P2;PMS_P1;PMS_P2;Temp;Humidity;BMP_temperature;BMP_pressure;BME280_temperature;BME280_humidity;BME280_pressure;Samples;Min_cycle;Max_cycle;Signal;HPM_P1;HPM_P2
2022/01/15 00:01:25;;;;;;;;;;;;;;;8.63;73.01;103095.28;5138697;27;56607;-83
2022/01/15 00:03:50;;;;;;;;;;;;;;;8.61;72.97;103107.28;5138364;27;54366;-83
2022/01/15 00:06:43;;;;;;;;;;;;;;;8.63;73.34;103120.16;5140391;27;56139;-83
2022/01/15 00:09:09;;;;;;;;;;;;;;;8.63;72.82;103130.47;5039703;28;27001;-82
2022/01/15 00:11:34;;;;;;;;;;;;;;;8.62;73.01;103111.56;5055147;28;26877;-83
2022/01/15 00:14:12;;;;;;;;;;;;;;;8.61;73.10;103089.25;5056324;28;27101;-82
2022/01/15 00:16:50;;;;;;;;;;;;;;;8.61;72.76;103081.53;5058211;28;27763;-82
2022/01/15 00:19:18;;;;;;;;;;;;;;;8.59;73.25;103098.63;5057935;28;27021;-83
2022/01/15 00:21:43;;;;;;;;;;;;;;;8.60;72.68;103108.09;5061671;28;27450;-82
2022/01/15 00:24:08;;;;;;;;;;;;;;;8.59;72.63;103103.78;5060038;28;26733;-83
2022/01/15 00:26:33;;;;;;;;;;;;;;;8.57;72.72;103084.88;5057826;28;27049;-83
2022/01/15 00:28:59;;;;;;;;;;;;;;;8.57;72.76;103084.88;5061116;28;27142;-82
2022/01/15 00:31:25;;;;;;;;;;;;;;;8.57;73.04;103084.88;5058159;28;27073;-83
2022/01/15 00:33:50;;;;;;;;;;;;;;;8.57;72.94;103090.03;5058014;28;26976;-81
2022/01/15 00:36:18;;;;;;;;;;;;;;;8.58;72.82;103091.78;5058199;28;26981;-81
2022/01/15 00:38:44;;;;;;;;;;;;;;;8.58;72.84;103081.47;5057285;28;26691;-81
2022/01/15 00:41:09;;;;;;;;;;;;;;;8.59;73.09;103083.19;5057573;28;28153;-82
2022/01/15 00:43:34;;;;;;;;;;;;;;;8.60;72.75;103084.94;5058273;28;26833;-83
2022/01/15 00:45:59;;;;;;;;;;;;;;;8.61;72.75;103084.09;5102005;27;27755;-82
2022/01/15 00:48:25;;;;;;;;;;;;;;;8.62;72.85;103075.50;5143095;27;26884;-83
2022/01/15 00:50:51;;;;;;;;;;;;;;;8.61;72.73;103073.78;5142987;27;27791;-82
2022/01/15 00:53:16;;;;;;;;;;;;;;;8.60;72.59;103079.78;5142673;27;26954;-83
2022/01/15 00:55:41;;;;;;;;;;;;;;;8.60;72.75;103079.78;5142583;27;26989;-83
2022/01/15 00:58:07;;;;;;;;;;;;;;;8.60;72.85;103090.06;5142670;27;27006;-83
2022/01/15 01:00:32;;;;;;;;;;;;;;;8.60;72.88;103084.94;5142255;27;39523;-83
2022/01/15 01:02:57;;;;;;;;;;;;;;;8.60;72.86;103069.47;5142233;27;26869;-82
2022/01/15 01:05:22;;;;;;;;;;;;;;;8.62;72.92;103064.38;5143707;27;27050;-81
2022/01/15 01:07:48;;;;;;;;;;;;;;;8.62;72.81;103067.78;5142723;27;26777;-81
2022/01/15 01:21:22;;;;;;;;;;;;;;;8.61;72.96;103060.91;5144138;27;26859;-83
2022/01/15 01:23:47;;;;;;;;;;;;;;;8.58;72.81;103060.88;5141408;27;27087;-82
2022/01/15 01:26:25;;;;;;;;;;;;;;;8.58;72.72;103054.84;5142820;27;26896;-81
2022/01/15 01:29:01;;;;;;;;;;;;;;;8.55;72.54;103045.31;5147312;27;27072;-82
2022/01/15 01:31:36;;;;;;;;;;;;;;;8.52;72.42;103039.25;5142765;27;26893;-81
2022/01/15 01:34:08;;;;;;;;;;;;;;;8.49;72.65;103037.50;5124280;27;26833;-82
2022/01/15 01:36:45;;;;;;;;;;;;;;;8.50;72.61;103041.81;5142461;27;26854;-82
2022/01/15 01:39:16;;;;;;;;;;;;;;;8.50;72.70;103035.78;5141241;27;26931;-81
2022/01/15 01:41:48;;;;;;;;;;;;;;;8.50;72.61;103028.06;5142792;27;26803;-81
2022/01/15 01:44:17;;;;;;;;;;;;;;;8.51;72.88;103022.06;5144527;27;26877;-83
2022/01/15 01:46:50;;;;;;;;;;;;;;;8.52;72.71;103024.66;5148633;27;26729;-83
2022/01/15 01:49:16;;;;;;;;;;;;;;;8.53;72.90;103020.38;5147230;27;26963;-81
2022/01/15 01:51:41;;;;;;;;;;;;;;;8.53;72.72;103016.09;5142356;27;26838;-81
2022/01/15 01:54:08;;;;;;;;;;;;;;;8.54;72.96;103017.84;5140543;27;26922;-81
2022/01/15 01:56:34;;;;;;;;;;;;;;;8.56;72.91;103026.47;5141522;27;27006;-81
2022/01/15 01:58:59;;;;;;;;;;;;;;;8.56;72.69;103026.47;5142628;27;26918;-82
2022/01/15 02:01:25;;;;;;;;;;;;;;;8.56;72.91;103011.00;5126346;27;28481;-82
2022/01/15 02:03:50;;;;;;;;;;;;;;;8.58;72.77;102999.03;5143679;27;26851;-82
2022/01/15 02:06:15;;;;;;;;;;;;;;;8.59;73.37;103000.75;5140982;27;28925;-82
2022/01/15 02:08:41;;;;;;;;;;;;;;;8.61;72.93;103004.25;5142930;27;26983;-83
2022/01/15 02:11:06;;;;;;;;;;;;;;;8.62;72.94;103000.81;5145734;27;26874;-81
2022/01/15 02:13:32;;;;;;;;;;;;;;;8.64;73.16;102999.16;5142866;27;26918;-81
2022/01/15 02:16:00;;;;;;;;;;;;;;;8.64;73.12;102999.16;5142661;27;27227;-82
2022/01/15 02:18:25;;;;;;;;;;;;;;;8.54;72.73;102968.03;5143371;27;26898;-80
2022/01/15 02:23:41;;;;;;;;;;;;;;;8.65;72.94;102990.59;5141672;27;26814;-82
2022/01/15 02:26:08;;;;;;;;;;;;;;;8.64;73.13;102994.00;5141206;27;27173;-81
2022/01/15 02:28:34;;;;;;;;;;;;;;;8.64;73.03;102994.00;5140930;27;26847;-81
2022/01/15 02:31:04;;;;;;;;;;;;;;;8.64;73.09;102994.00;5141771;27;27463;-83
2022/01/15 02:33:29;;;;;;;;;;;;;;;8.67;72.83;102988.88;5142225;27;26849;-82
2022/01/15 02:35:54;;;;;;;;;;;;;;;8.67;73.12;102981.16;5141841;27;26815;-82
2022/01/15 02:38:20;;;;;;;;;;;;;;;8.69;72.99;102982.06;5140875;27;26822;-81
2022/01/15 02:40:45;;;;;;;;;;;;;;;8.71;73.24;102980.38;5140448;27;27073;-82
2022/01/15 02:43:13;;;;;;;;;;;;;;;8.71;72.98;102976.94;5140265;27;27001;-83
2022/01/15 02:45:43;;;;;;;;;;;;;;;8.70;72.92;102968.31;5141774;27;27220;-83
2022/01/15 02:48:12;;;;;;;;;;;;;;;8.70;72.90;102968.31;5145997;27;26857;-82
2022/01/15 02:50:39;;;;;;;;;;;;;;;8.69;72.94;102960.59;5141229;27;27113;-81
2022/01/15 02:53:06;;;;;;;;;;;;;;;8.66;72.87;102971.69;5139583;27;26959;-81
2022/01/15 02:55:31;;;;;;;;;;;;;;;8.64;72.96;102973.38;5140797;27;26837;-81
2022/01/15 02:57:56;;;;;;;;;;;;;;;8.66;72.84;102970.84;5140142;27;26820;-81
2022/01/15 03:00:22;;;;;;;;;;;;;;;8.66;72.83;102966.53;5140784;27;27342;-81
2022/01/15 03:02:47;;;;;;;;;;;;;;;8.67;72.82;102972.56;5140051;27;26853;-81
2022/01/15 03:05:12;;;;;;;;;;;;;;;8.66;72.92;102970.84;5147738;27;26918;-83
2022/01/15 03:07:38;;;;;;;;;;;;;;;8.64;72.94;102957.94;5144314;27;29253;-83
2022/01/15 03:10:04;;;;;;;;;;;;;;;8.61;72.90;102963.03;5142892;27;26866;-83
2022/01/15 03:12:29;;;;;;;;;;;;;;;8.60;73.14;102961.28;5142959;27;26830;-83
2022/01/15 03:15:00;;;;;;;;;;;;;;;8.60;73.07;102956.13;5141054;27;54076;-81
2022/01/15 03:17:25;;;;;;;;;;;;;;;8.61;73.26;102963.03;5141434;27;26830;-81
2022/01/15 03:19:50;;;;;;;;;;;;;;;8.61;72.75;102950.16;5140745;27;36845;-82
2022/01/15 03:22:15;;;;;;;;;;;;;;;8.63;72.94;102951.03;5139747;27;46160;-81
2022/01/15 03:24:40;;;;;;;;;;;;;;;8.64;72.93;102947.63;5140271;27;26753;-81
2022/01/15 03:27:05;;;;;;;;;;;;;;;8.64;73.22;102957.94;5138001;27;53810;-81
2022/01/15 03:29:31;;;;;;;;;;;;;;;8.64;73.13;102955.34;5137976;27;56188;-81
2022/01/15 03:31:56;;;;;;;;;;;;;;;8.66;73.10;102950.25;5138588;27;54063;-81
2022/01/15 03:34:22;;;;;;;;;;;;;;;8.64;72.96;102937.31;5141401;27;26819;-81
2022/01/15 03:36:47;;;;;;;;;;;;;;;8.62;73.00;102941.56;5146626;27;26821;-82
2022/01/15 03:39:12;;;;;;;;;;;;;;;8.61;73.21;102942.44;5144236;27;56554;-81
2022/01/15 03:41:37;;;;;;;;;;;;;;;8.62;73.03;102941.56;5141165;27;55444;-81
2022/01/15 03:44:02;;;;;;;;;;;;;;;8.61;72.75;102942.44;5140430;27;56675;-83
2022/01/15 03:46:27;;;;;;;;;;;;;;;8.59;73.12;102941.50;5139693;27;27032;-83
2022/01/15 03:48:53;;;;;;;;;;;;;;;8.57;72.75;102935.47;5138934;27;47268;-81
2022/01/15 03:51:19;;;;;;;;;;;;;;;8.57;72.78;102935.47;5140508;27;26943;-82
2022/01/15 03:53:44;;;;;;;;;;;;;;;8.57;73.11;102930.34;5140294;27;27240;-81
2022/01/15 03:56:09;;;;;;;;;;;;;;;8.59;73.09;102928.63;5141265;27;26805;-81
2022/01/15 03:58:34;;;;;;;;;;;;;;;8.60;73.18;102925.22;5140331;27;47121;-82
2022/01/15 04:01:00;;;;;;;;;;;;;;;8.63;73.34;102930.44;5149833;27;55106;-83
2022/01/15 04:03:25;;;;;;;;;;;;;;;8.64;72.89;102937.31;5141696;27;27078;-83
2022/01/15 04:05:50;;;;;;;;;;;;;;;8.64;73.01;102927.03;5141528;27;26821;-83
2022/01/15 04:08:15;;;;;;;;;;;;;;;8.67;72.84;102926.19;5139763;27;53052;-83
2022/01/15 04:10:42;;;;;;;;;;;;;;;8.68;72.86;102923.66;5142182;27;27063;-81
2022/01/15 04:13:07;;;;;;;;;;;;;;;8.66;72.26;102912.44;5147464;27;27051;-81
2022/01/15 04:15:35;;;;;;;;;;;;;;;8.63;72.74;102909.81;5144704;27;26920;-81
2022/01/15 04:18:00;;;;;;;;;;;;;;;8.60;72.81;102909.78;5152695;27;26864;-81
2022/01/15 04:20:25;;;;;;;;;;;;;;;8.58;72.70;102903.75;5141128;27;26886;-81
2022/01/15 04:22:51;;;;;;;;;;;;;;;8.57;72.56;102907.16;5139419;27;26786;-82
2022/01/15 04:25:17;;;;;;;;;;;;;;;8.55;72.50;102895.94;5139354;27;27077;-81
2022/01/15 04:27:44;;;;;;;;;;;;;;;8.53;72.54;102900.22;5138927;27;26940;-81
2022/01/15 04:30:11;;;;;;;;;;;;;;;8.49;72.72;102890.69;5139792;27;26802;-81
2022/01/15 04:32:37;;;;;;;;;;;;;;;8.49;72.91;102895.84;5140296;27;27022;-81
2022/01/15 04:35:02;;;;;;;;;;;;;;;8.51;72.62;102896.72;5140720;27;26925;-83
2022/01/15 04:37:41;;;;;;;;;;;;;;;8.52;72.80;102895.91;5139802;27;27707;-82
2022/01/15 04:40:08;;;;;;;;;;;;;;;8.52;72.90;102890.75;5139136;27;27070;-83
2022/01/15 04:42:33;;;;;;;;;;;;;;;8.50;72.51;102889.88;5140125;27;29092;-83
2022/01/15 04:44:58;;;;;;;;;;;;;;;8.47;72.69;102882.06;5140584;27;26929;-81
2022/01/15 04:47:24;;;;;;;;;;;;;;;8.46;72.57;102879.47;5139977;27;26794;-81
2022/01/15 04:49:49;;;;;;;;;;;;;;;8.45;72.59;102888.03;5139883;27;26906;-81
2022/01/15 04:52:14;;;;;;;;;;;;;;;8.44;72.75;102889.75;5139624;27;34011;-81
2022/01/15 04:54:39;;;;;;;;;;;;;;;8.45;72.90;102883.75;5143260;27;54998;-82
2022/01/15 04:57:05;;;;;;;;;;;;;;;8.46;72.65;102885.50;5151743;27;26610;-83
2022/01/15 04:59:30;;;;;;;;;;;;;;;8.47;72.81;102882.06;5141869;27;42831;-83
2022/01/15 05:01:55;;;;;;;;;;;;;;;8.46;73.32;102885.50;5138453;27;46774;-83
2022/01/15 05:04:20;;;;;;;;;;;;;;;8.47;72.85;102879.47;5138721;27;26835;-83
2022/01/15 05:06:45;;;;;;;;;;;;;;;8.46;72.92;102880.34;5141590;27;31856;-83
2022/01/15 05:09:11;;;;;;;;;;;;;;;8.45;72.70;102878.59;5142916;27;27086;-83
2022/01/15 05:11:59;;;;;;;;;;;;;;;8.40;72.86;102880.22;5145894;27;27430;-83
2022/01/15 05:14:24;;;;;;;;;;;;;;;8.36;72.75;102878.44;5151783;27;26943;-81
2022/01/15 05:16:50;;;;;;;;;;;;;;;8.35;72.76;102870.69;5143284;27;55829;-81
2022/01/15 05:19:15;;;;;;;;;;;;;;;8.34;72.88;102877.56;5143434;27;44310;-82
2022/01/15 05:21:40;;;;;;;;;;;;;;;8.34;72.71;102874.97;5141457;27;47010;-81
2022/01/15 05:24:05;;;;;;;;;;;;;;;8.32;72.64;102876.69;5144173;27;26855;-82
2022/01/15 05:26:31;;;;;;;;;;;;;;;8.30;72.63;102870.63;5142695;27;27048;-83
2022/01/15 05:28:56;;;;;;;;;;;;;;;8.28;72.60;102869.69;5142249;27;26922;-83
2022/01/15 05:31:22;;;;;;;;;;;;;;;8.27;72.75;102873.09;5142878;27;26954;-83
2022/01/15 05:33:47;;;;;;;;;;;;;;;8.29;73.02;102871.44;5150123;27;27112;-81
2022/01/15 05:36:12;;;;;;;;;;;;;;;8.29;72.65;102871.44;5141064;27;27760;-81
2022/01/15 05:38:38;;;;;;;;;;;;;;;8.25;72.63;102864.47;5142007;27;27161;-81
2022/01/15 05:41:03;;;;;;;;;;;;;;;8.28;72.93;102874.84;5147759;27;56073;-82
2022/01/15 05:43:28;;;;;;;;;;;;;;;8.28;72.70;102874.84;5142493;27;36271;-81
2022/01/15 05:45:53;;;;;;;;;;;;;;;8.25;72.96;102867.91;5141226;27;57187;-81
2022/01/15 05:48:18;;;;;;;;;;;;;;;8.25;72.77;102864.47;5139797;27;54350;-81
2022/01/15 05:50:44;;;;;;;;;;;;;;;8.25;72.63;102865.34;5142194;27;26937;-81
2022/01/15 05:53:09;;;;;;;;;;;;;;;8.26;72.78;102871.38;5142020;27;27068;-81
2022/01/15 05:55:34;;;;;;;;;;;;;;;8.28;72.43;102874.84;5142847;27;54500;-81
2022/01/15 05:57:59;;;;;;;;;;;;;;;8.28;72.75;102874.84;5142187;27;27132;-81
2022/01/15 06:00:24;;;;;;;;;;;;;;;8.29;72.64;102866.31;5141880;27;26670;-81
2022/01/15 06:02:49;;;;;;;;;;;;;;;8.32;72.85;102865.50;5138409;27;44860;-81
2022/01/15 06:05:15;;;;;;;;;;;;;;;8.33;73.13;102867.22;5140637;27;48337;-81
2022/01/15 06:07:40;;;;;;;;;;;;;;;8.34;72.91;102868.97;5141516;27;54959;-81
2022/01/15 06:10:05;;;;;;;;;;;;;;;8.32;72.21;102858.66;5143261;27;27023;-80
2022/01/15 06:12:32;;;;;;;;;;;;;;;8.26;72.38;102858.50;5142791;27;26970;-80
2022/01/15 06:14:58;;;;;;;;;;;;;;;8.20;72.67;102856.69;5143575;27;27804;-79
2022/01/15 06:17:23;;;;;;;;;;;;;;;8.21;72.64;102847.28;5142590;27;26750;-82
2022/01/15 06:19:48;;;;;;;;;;;;;;;8.23;72.51;102855.88;5142919;27;26908;-83
2022/01/15 06:22:14;;;;;;;;;;;;;;;8.22;72.70;102848.97;5141922;27;26994;-83
2022/01/15 06:24:39;;;;;;;;;;;;;;;8.21;72.04;102852.41;5144860;27;56989;-83
2022/01/15 06:27:04;;;;;;;;;;;;;;;8.18;72.23;102854.91;5149484;27;26748;-83
2022/01/15 06:29:30;;;;;;;;;;;;;;;8.17;72.22;102840.34;5143307;27;26622;-82
2022/01/15 06:31:55;;;;;;;;;;;;;;;8.16;72.60;102843.75;5140762;27;26797;-82
2022/01/15 06:34:20;;;;;;;;;;;;;;;8.15;72.33;102842.00;5140837;27;26796;-83
2022/01/15 06:36:46;;;;;;;;;;;;;;;8.14;72.46;102847.97;5140507;27;47987;-81
2022/01/15 06:39:11;;;;;;;;;;;;;;;8.11;72.13;102841.06;5144355;27;26844;-81
2022/01/15 06:41:36;;;;;;;;;;;;;;;8.12;72.53;102847.09;5122694;27;26837;-81
2022/01/15 06:44:01;;;;;;;;;;;;;;;8.10;72.53;102843.59;5141299;27;47872;-82
2022/01/15 06:46:27;;;;;;;;;;;;;;;8.08;72.45;102840.16;5145414;27;34498;-81
2022/01/15 06:48:52;;;;;;;;;;;;;;;8.04;72.01;102833.22;5153801;27;56071;-82
2022/01/15 06:51:17;;;;;;;;;;;;;;;8.01;72.16;102828.91;5141172;27;26834;-83
2022/01/15 06:53:42;;;;;;;;;;;;;;;8.00;72.24;102828.84;5140001;27;45422;-82
2022/01/15 06:56:07;;;;;;;;;;;;;;;7.99;72.25;102824.53;5140989;27;26919;-81
2022/01/15 06:58:33;;;;;;;;;;;;;;;7.98;72.01;102827.97;5140771;27;52469;-82
2022/01/15 07:00:58;;;;;;;;;;;;;;;7.94;72.14;102821.91;5141148;27;26824;-82
2022/01/15 07:03:24;;;;;;;;;;;;;;;7.95;72.54;102822.78;5141505;27;26873;-82
2022/01/15 07:05:49;;;;;;;;;;;;;;;7.95;72.18;102827.94;5141335;27;26493;-82
2022/01/15 07:08:14;;;;;;;;;;;;;;;7.92;72.19;102817.56;5140443;27;54865;-82
2022/01/15 07:10:41;;;;;;;;;;;;;;;7.89;72.28;102807.22;5141010;27;52460;-82
2022/01/15 07:13:06;;;;;;;;;;;;;;;7.88;72.09;102808.91;5140919;27;26952;-82
2022/01/15 07:15:32;;;;;;;;;;;;;;;7.86;71.54;102817.44;5141769;27;26903;-81
2022/01/15 07:17:59;;;;;;;;;;;;;;;7.83;71.64;102814.81;5140866;27;27515;-83
2022/01/15 07:20:24;;;;;;;;;;;;;;;7.81;71.94;102809.63;5140228;27;26808;-83
2022/01/15 07:22:49;;;;;;;;;;;;;;;7.79;71.64;102816.47;5140319;27;26913;-83
2022/01/15 07:25:14;;;;;;;;;;;;;;;7.76;71.91;102819.84;5137668;27;55340;-82
2022/01/15 07:27:40;;;;;;;;;;;;;;;7.75;72.28;102820.69;5140546;27;26926;-82
2022/01/15 07:30:06;;;;;;;;;;;;;;;7.72;72.08;102810.31;5139543;27;26862;-83
2022/01/15 07:32:32;;;;;;;;;;;;;;;7.70;71.88;102809.44;5140272;27;27403;-82
2022/01/15 07:34:57;;;;;;;;;;;;;;;7.69;71.91;102810.28;5140282;27;26622;-81
2022/01/15 07:37:22;;;;;;;;;;;;;;;7.67;71.86;102811.97;5140604;27;27357;-82
2022/01/15 07:39:48;;;;;;;;;;;;;;;7.65;71.92;102808.47;5139669;27;27095;-81
2022/01/15 07:42:14;;;;;;;;;;;;;;;7.64;72.25;102805.91;5140763;27;27082;-83
2022/01/15 07:44:39;;;;;;;;;;;;;;;7.62;71.69;102808.44;5148350;27;26825;-81
2022/01/15 07:47:04;;;;;;;;;;;;;;;7.63;71.81;102809.31;5141672;27;27004;-81
2022/01/15 07:49:32;;;;;;;;;;;;;;;7.60;71.77;102804.97;5139991;27;26923;-82
2022/01/15 07:51:57;;;;;;;;;;;;;;;7.59;71.51;102805.81;5139604;27;26871;-83
2022/01/15 07:54:22;;;;;;;;;;;;;;;7.55;71.85;102810.84;5139445;27;26772;-81
2022/01/15 07:56:48;;;;;;;;;;;;;;;7.51;71.73;102809.94;5139518;27;26959;-81
2022/01/15 07:59:13;;;;;;;;;;;;;;;7.48;71.68;102804.72;5140038;27;26763;-81
2022/01/15 08:01:38;;;;;;;;;;;;;;;7.47;72.07;102802.97;5144232;27;55416;-81
2022/01/15 08:04:03;;;;;;;;;;;;;;;7.45;72.14;102808.94;5145170;27;45433;-82
2022/01/15 08:06:29;;;;;;;;;;;;;;;7.44;72.16;102802.06;5153135;27;26761;-81
2022/01/15 08:08:55;;;;;;;;;;;;;;;7.44;72.27;102802.94;5149149;27;26840;-82
2022/01/15 08:11:20;;;;;;;;;;;;;;;7.44;71.85;102797.78;5140794;27;26941;-81
2022/01/15 08:13:45;;;;;;;;;;;;;;;7.46;71.94;102806.38;5139718;27;53740;-81
2022/01/15 08:16:11;;;;;;;;;;;;;;;7.50;71.86;102805.59;5142158;27;37372;-82
2022/01/15 08:18:36;;;;;;;;;;;;;;;7.51;71.67;102804.78;5141913;27;26743;-82
2022/01/15 08:21:03;;;;;;;;;;;;;;;7.53;72.16;102797.97;5138870;27;26900;-83
2022/01/15 08:23:29;;;;;;;;;;;;;;;7.56;72.06;102803.19;5138097;27;26925;-83
2022/01/15 08:25:54;;;;;;;;;;;;;;;7.58;72.20;102801.50;5138163;27;26927;-83
2022/01/15 08:28:19;;;;;;;;;;;;;;;7.59;71.91;102792.94;5139524;27;27071;-83
2022/01/15 08:30:44;;;;;;;;;;;;;;;7.57;71.54;102794.59;5147917;27;27527;-81
2022/01/15 08:33:10;;;;;;;;;;;;;;;7.52;71.42;102805.66;5144802;27;35764;-81
2022/01/15 08:35:35;;;;;;;;;;;;;;;7.49;71.66;102800.44;5149459;27;26961;-81
2022/01/15 08:38:03;;;;;;;;;;;;;;;7.46;71.86;102796.09;5144886;27;53078;-81
2022/01/15 08:40:28;;;;;;;;;;;;;;;7.42;72.32;102796.91;5141812;27;27594;-81
2022/01/15 08:42:54;;;;;;;;;;;;;;;7.44;71.91;102792.66;5144745;27;26590;-82
2022/01/15 08:45:20;;;;;;;;;;;;;;;7.47;71.94;102792.69;5144688;27;27831;-80
2022/01/15 08:47:45;;;;;;;;;;;;;;;7.49;72.21;102791.03;5145047;27;26955;-82
2022/01/15 08:50:11;;;;;;;;;;;;;;;7.52;71.85;102791.09;5125421;27;27359;-82
2022/01/15 08:52:36;;;;;;;;;;;;;;;7.54;72.25;102789.41;5145056;27;26768;-82
2022/01/15 08:55:03;;;;;;;;;;;;;;;7.56;71.84;102782.59;5143225;27;27187;-82
2022/01/15 08:57:28;;;;;;;;;;;;;;;7.55;71.94;102780.88;5142397;27;27043;-83
2022/01/15 08:59:53;;;;;;;;;;;;;;;7.52;72.12;102780.81;5144206;27;26844;-83
2022/01/15 09:02:18;;;;;;;;;;;;;;;7.52;72.09;102779.94;5143497;27;54943;-82
2022/01/15 09:04:44;;;;;;;;;;;;;;;7.57;72.33;102778.34;5143800;27;27051;-83
2022/01/15 09:07:10;;;;;;;;;;;;;;;7.60;71.98;102784.41;5124841;27;27039;-84
2022/01/15 09:09:35;;;;;;;;;;;;;;;7.57;72.22;102776.59;5143787;27;26972;-84
2022/01/15 09:12:00;;;;;;;;;;;;;;;7.55;72.24;102775.72;5143140;27;53929;-83
2022/01/15 09:14:25;;;;;;;;;;;;;;;7.55;71.95;102775.72;5143032;27;56217;-81
2022/01/15 09:16:50;;;;;;;;;;;;;;;7.54;71.61;102779.13;5143080;27;26777;-81
2022/01/15 09:19:15;;;;;;;;;;;;;;;7.47;71.28;102777.28;5142177;27;56585;-81
2022/01/15 09:21:41;;;;;;;;;;;;;;;7.44;71.15;102777.22;5141812;27;55186;-81
2022/01/15 09:24:06;;;;;;;;;;;;;;;7.43;71.77;102770.34;5141374;27;27062;-83
2022/01/15 09:31:56;;;;;;;;;;;;;;;7.33;71.45;102773.56;5141881;27;26870;-84
2022/01/15 09:34:21;;;;;;;;;;;;;;;7.32;71.80;102769.25;5143078;27;27043;-82
2022/01/15 09:36:46;;;;;;;;;;;;;;;7.29;71.66;102767.50;5142382;27;26856;-83
2022/01/15 09:39:12;;;;;;;;;;;;;;;7.25;72.10;102769.97;5141700;27;27316;-83
2022/01/15 09:41:38;;;;;;;;;;;;;;;7.24;71.81;102768.22;5141890;27;33354;-83
2022/01/15 09:44:04;;;;;;;;;;;;;;;7.25;72.38;102769.97;5143381;27;27839;-82
2022/01/15 09:46:29;;;;;;;;;;;;;;;7.29;72.18;102766.63;5141073;27;26916;-81
2022/01/15 09:48:54;;;;;;;;;;;;;;;7.31;72.00;102764.94;5142678;27;27626;-82
2022/01/15 09:51:20;;;;;;;;;;;;;;;7.32;71.54;102769.25;5154706;27;26683;-82
2022/01/15 09:53:45;;;;;;;;;;;;;;;7.31;71.89;102770.09;5145313;27;26941;-82
2022/01/15 09:56:12;;;;;;;;;;;;;;;7.32;71.95;102760.69;5140959;27;26895;-80
2022/01/15 09:58:37;;;;;;;;;;;;;;;7.34;72.24;102754.75;5141705;27;28260;-80
2022/01/15 10:01:02;;;;;;;;;;;;;;;7.38;71.97;102755.69;5142447;27;26922;-80
2022/01/15 10:03:28;;;;;;;;;;;;;;;7.46;72.33;102762.69;5143422;27;27564;-81
2022/01/15 10:05:54;;;;;;;;;;;;;;;7.51;72.31;102758.50;5150515;27;26445;-81
2022/01/15 10:08:20;;;;;;;;;;;;;;;7.50;71.97;102761.91;5147759;27;27006;-81
2022/01/15 10:10:53;;;;;;;;;;;;;;;7.52;71.85;102757.66;5145236;27;26869;-81
2022/01/15 10:13:18;;;;;;;;;;;;;;;7.55;72.25;102759.41;5145795;27;27619;-80
2022/01/15 10:15:44;;;;;;;;;;;;;;;7.56;72.08;102746.59;5143275;27;26940;-82
2022/01/15 10:18:20;;;;;;;;;;;;;;;7.59;71.69;102746.66;5141480;27;27127;-82
2022/01/15 10:20:45;;;;;;;;;;;;;;;7.62;71.77;102741.56;5141639;27;26873;-82
2022/01/15 10:23:15;;;;;;;;;;;;;;;7.67;71.49;102745.09;5141384;27;27878;-82
2022/01/15 10:25:40;;;;;;;;;;;;;;;7.73;72.24;102744.31;5142130;27;26970;-82
2022/01/15 10:28:05;;;;;;;;;;;;;;;7.76;71.90;102745.25;5141698;27;56642;-82
2022/01/15 10:30:30;;;;;;;;;;;;;;;7.82;72.11;102748.78;5137954;27;56548;-80
2022/01/15 10:33:03;;;;;;;;;;;;;;;7.84;72.04;102752.22;5139405;27;27575;-81
2022/01/15 10:35:35;;;;;;;;;;;;;;;7.88;71.88;102743.72;5139229;27;26910;-80
2022/01/15 10:38:02;;;;;;;;;;;;;;;7.90;71.80;102747.22;5138992;27;27584;-80
2022/01/15 10:40:37;;;;;;;;;;;;;;;7.91;71.57;102741.22;5140364;27;27059;-80
2022/01/15 10:43:02;;;;;;;;;;;;;;;7.92;71.96;102735.22;5141013;27;27210;-81
2022/01/15 10:45:31;;;;;;;;;;;;;;;7.94;72.11;102742.16;5144354;27;26981;-81
2022/01/15 10:47:58;;;;;;;;;;;;;;;7.98;71.99;102740.50;5140099;27;27627;-81
2022/01/15 10:50:24;;;;;;;;;;;;;;;7.96;71.70;102737.00;5140903;27;26786;-82
2022/01/15 10:52:50;;;;;;;;;;;;;;;7.92;71.45;102735.22;5139028;27;26802;-81
2022/01/15 10:55:16;;;;;;;;;;;;;;;7.87;71.35;102731.72;5140460;27;26831;-80
2022/01/15 10:57:41;;;;;;;;;;;;;;;7.85;71.26;102733.38;5138246;27;27116;-80
2022/01/15 11:00:07;;;;;;;;;;;;;;;7.81;71.33;102734.16;5138592;27;55106;-82
2022/01/15 11:02:32;;;;;;;;;;;;;;;7.74;70.84;102723.78;5141683;27;26867;-82
2022/01/15 11:04:57;;;;;;;;;;;;;;;7.68;70.88;102726.25;5155460;27;26996;-82
2022/01/15 11:07:22;;;;;;;;;;;;;;;7.64;71.06;102719.34;5147957;27;27001;-82
2022/01/15 11:09:50;;;;;;;;;;;;;;;7.66;71.28;102717.63;5143098;27;26652;-83
2022/01/15 11:12:16;;;;;;;;;;;;;;;7.71;71.75;102726.31;5138938;27;26949;-82
2022/01/15 11:14:41;;;;;;;;;;;;;;;7.75;71.31;102717.81;5139026;27;27020;-83
2022/01/15 11:17:07;;;;;;;;;;;;;;;7.76;71.82;102709.22;5140426;27;55332;-82
2022/01/15 11:19:33;;;;;;;;;;;;;;;7.81;71.65;102716.16;5141558;27;26867;-82
2022/01/15 11:21:58;;;;;;;;;;;;;;;7.83;71.82;102701.66;5141778;27;27024;-82
2022/01/15 11:24:24;;;;;;;;;;;;;;;7.87;71.64;102703.44;5141234;27;26845;-81
2022/01/15 11:26:52;;;;;;;;;;;;;;;7.86;71.34;102686.25;5139325;27;26835;-82
2022/01/15 11:29:18;;;;;;;;;;;;;;;7.89;70.93;102699.16;5139910;27;27116;-82
2022/01/15 11:31:44;;;;;;;;;;;;;;;7.90;71.24;102694.06;5138996;27;27231;-82
2022/01/15 11:34:11;;;;;;;;;;;;;;;7.90;71.16;102695.75;5139483;27;26426;-80
2022/01/15 11:36:38;;;;;;;;;;;;;;;7.88;71.37;102687.13;5140247;27;27042;-82
2022/01/15 11:39:05;;;;;;;;;;;;;;;7.92;71.26;102688.91;5140137;27;26949;-82
2022/01/15 11:41:30;;;;;;;;;;;;;;;7.96;71.75;102691.56;5139912;27;27105;-82
2022/01/15 11:43:55;;;;;;;;;;;;;;;7.98;71.40;102683.88;5140001;27;45728;-82
2022/01/15 11:46:25;;;;;;;;;;;;;;;7.96;71.04;102682.97;5137746;27;44604;-82
2022/01/15 11:48:51;;;;;;;;;;;;;;;7.96;71.49;102670.13;5138335;27;26823;-84
2022/01/15 11:51:19;;;;;;;;;;;;;;;7.99;71.29;102668.44;5140728;27;26961;-84
2022/01/15 11:53:44;;;;;;;;;;;;;;;8.03;70.85;102671.94;5140817;27;26932;-84
2022/01/15 11:56:21;;;;;;;;;;;;;;;7.99;70.88;102665.00;5138729;27;26894;-82
2022/01/15 11:58:46;;;;;;;;;;;;;;;7.98;70.98;102660.72;5139442;27;26838;-82
2022/01/15 12:01:34;;;;;;;;;;;;;;;8.01;71.50;102663.34;5136644;27;26847;-82
2022/01/15 12:04:18;;;;;;;;;;;;;;;8.06;71.21;102661.72;5125440;27;26725;-83
2022/01/15 12:06:58;;;;;;;;;;;;;;;8.06;71.47;102661.72;5137492;27;27101;-83
2022/01/15 12:09:32;;;;;;;;;;;;;;;8.04;71.47;102659.09;5137032;27;26509;-82
2022/01/15 12:11:58;;;;;;;;;;;;;;;8.07;71.31;102668.56;5136838;27;27667;-80
2022/01/15 12:14:42;;;;;;;;;;;;;;;8.07;71.66;102663.44;5139825;27;26946;-81
2022/01/15 12:17:25;;;;;;;;;;;;;;;8.10;71.41;102658.31;5140234;27;27009;-80
2022/01/15 12:19:51;;;;;;;;;;;;;;;8.08;70.96;102647.16;5144151;27;26758;-82
2022/01/15 12:22:33;;;;;;;;;;;;;;;8.08;71.14;102639.44;5123353;27;27551;-82
2022/01/15 12:24:58;;;;;;;;;;;;;;;8.08;71.10;102642.00;5142414;27;27033;-81
2022/01/15 12:27:27;;;;;;;;;;;;;;;8.10;70.93;102632.59;5142604;27;35810;-81
2022/01/15 12:29:59;;;;;;;;;;;;;;;8.12;71.56;102630.91;5147153;27;26783;-81
2022/01/15 12:32:28;;;;;;;;;;;;;;;8.15;71.36;102620.66;5148147;27;26715;-81
2022/01/15 12:34:53;;;;;;;;;;;;;;;8.17;71.13;102624.13;5143979;27;26862;-82
2022/01/15 12:37:18;;;;;;;;;;;;;;;8.16;71.03;102612.09;5155750;27;26868;-82
2022/01/15 12:39:44;;;;;;;;;;;;;;;8.17;71.58;102608.69;5151239;27;33567;-82
2022/01/15 12:42:13;;;;;;;;;;;;;;;8.18;71.77;102598.41;5144708;27;26882;-82
2022/01/15 12:44:46;;;;;;;;;;;;;;;8.20;71.42;102598.44;5144611;27;26857;-82
2022/01/15 12:47:11;;;;;;;;;;;;;;;8.20;71.35;102593.28;5143691;27;26968;-81
2022/01/15 12:49:39;;;;;;;;;;;;;;;8.22;71.33;102591.59;5124549;27;26903;-82
2022/01/15 12:52:09;;;;;;;;;;;;;;;8.23;71.14;102588.16;5143499;27;27552;-82
2022/01/15 12:54:34;;;;;;;;;;;;;;;8.23;71.27;102588.16;5141609;27;27315;-81
2022/01/15 12:56:59;;;;;;;;;;;;;;;8.23;70.91;102572.72;5140984;27;57327;-82
2022/01/15 12:59:27;;;;;;;;;;;;;;;8.23;70.63;102575.31;5141863;27;50736;-81
2022/01/15 13:01:53;;;;;;;;;;;;;;;8.23;71.07;102577.88;5141390;27;26970;-81
2022/01/15 13:04:18;;;;;;;;;;;;;;;8.24;70.92;102571.91;5142200;27;27050;-80